| time (UTC) | temp F | wind direction | speed MPH | gust MPH | rain 1hr in | rain 24hr in | rain mn in | humidity % | barometer mb |
| 20260508184551 | 54 | 228 | 2.0 | 6.0 | 0.00 | 0.07 | 0.07 | 56 | 1018.7 |
| 20260508184031 | 54 | 236 | 1.0 | 6.0 | 0.00 | 0.07 | 0.07 | 55 | 1018.7 |
| 20260508183531 | 54 | 309 | 3.0 | 6.0 | 0.00 | 0.07 | 0.07 | 55 | 1018.7 |
| 20260508183046 | 54 | 259 | 2.0 | 5.0 | 0.00 | 0.07 | 0.07 | 54 | 1018.7 |
| 20260508182531 | 54 | 293 | 2.0 | 5.0 | 0.00 | 0.07 | 0.07 | 54 | 1018.7 |
| 20260508182030 | 54 | 276 | 1.0 | 5.0 | 0.00 | 0.07 | 0.07 | 55 | 1018.6 |
| 20260508181546 | 54 | 316 | 2.0 | 6.0 | 0.00 | 0.07 | 0.07 | 55 | 1018.5 |
| 20260508181030 | 54 | 346 | 2.0 | 6.0 | 0.00 | 0.07 | 0.07 | 54 | 1018.4 |
| 20260508180531 | 55 | 273 | 2.0 | 6.0 | 0.00 | 0.07 | 0.07 | 53 | 1018.5 |
| 20260508180051 | 55 | 281 | 2.0 | 5.0 | 0.00 | 0.07 | 0.07 | 53 | 1018.5 |
| 20260508175531 | 55 | 291 | 1.0 | 5.0 | 0.00 | 0.07 | 0.07 | 54 | 1018.4 |
| 20260508175031 | 55 | 315 | 2.0 | 6.0 | 0.00 | 0.07 | 0.07 | 54 | 1018.4 |
| 20260508174602 | 55 | 291 | 2.0 | 9.0 | 0.00 | 0.07 | 0.07 | 55 | 1018.4 |
| 20260508174032 | 55 | 18 | 3.0 | 9.0 | 0.00 | 0.07 | 0.07 | 55 | 1018.3 |
| 20260508173531 | 55 | 275 | 3.0 | 7.0 | 0.00 | 0.07 | 0.07 | 55 | 1018.4 |
| 20260508173038 | 55 | 298 | 3.0 | 8.0 | 0.00 | 0.07 | 0.07 | 54 | 1018.3 |
| 20260508172532 | 55 | 281 | 3.0 | 8.0 | 0.00 | 0.07 | 0.07 | 54 | 1018.2 |
| 20260508172031 | 55 | 288 | 3.0 | 9.0 | 0.00 | 0.07 | 0.07 | 54 | 1018.2 |
| 20260508171536 | 55 | 330 | 3.0 | 9.0 | 0.00 | 0.07 | 0.07 | 55 | 1018.1 |
| 20260508171032 | 55 | 272 | 3.0 | 9.0 | 0.00 | 0.07 | 0.07 | 54 | 1018.1 |
| 20260508170532 | 56 | 265 | 1.0 | 6.0 | 0.00 | 0.07 | 0.07 | 56 | 1018.0 |
| 20260508170043 | 55 | 270 | 2.0 | 8.0 | 0.00 | 0.07 | 0.07 | 56 | 1017.9 |
| 20260508165533 | 55 | 300 | 3.0 | 8.0 | 0.00 | 0.07 | 0.07 | 56 | 1017.9 |
| 20260508165031 | 55 | 302 | 3.0 | 8.0 | 0.00 | 0.07 | 0.07 | 55 | 1017.9 |
| 20260508164542 | 56 | 304 | 1.0 | 7.0 | 0.00 | 0.07 | 0.07 | 56 | 1017.8 |
| 20260508164031 | 56 | 276 | 2.0 | 8.0 | 0.00 | 0.07 | 0.07 | 56 | 1017.7 |
| 20260508163535 | 56 | 257 | 3.0 | 9.0 | 0.00 | 0.07 | 0.07 | 55 | 1017.7 |
| 20260508163042 | 56 | 288 | 3.0 | 9.0 | 0.00 | 0.07 | 0.07 | 55 | 1017.7 |
| 20260508162531 | 56 | 289 | 4.0 | 9.0 | 0.00 | 0.07 | 0.07 | 55 | 1017.7 |
| 20260508162033 | 56 | 293 | 5.0 | 8.0 | 0.00 | 0.07 | 0.07 | 54 | 1017.6 |
| 20260508161539 | 56 | 291 | 2.0 | 9.0 | 0.00 | 0.07 | 0.07 | 55 | 1017.5 |
| 20260508161030 | 56 | 298 | 1.0 | 9.0 | 0.00 | 0.07 | 0.07 | 55 | 1017.4 |
| 20260508160530 | 56 | 321 | 4.0 | 10.0 | 0.00 | 0.07 | 0.07 | 54 | 1017.5 |
| 20260508160043 | 56 | 316 | 3.0 | 10.0 | 0.00 | 0.07 | 0.07 | 54 | 1017.4 |
| 20260508155534 | 56 | 281 | 4.0 | 11.0 | 0.00 | 0.07 | 0.07 | 54 | 1017.4 |
| 20260508155034 | 57 | 296 | 5.0 | 11.0 | 0.00 | 0.07 | 0.07 | 53 | 1017.3 |
| 20260508154545 | 57 | 309 | 3.0 | 8.0 | 0.00 | 0.07 | 0.07 | 54 | 1017.3 |
| 20260508154033 | 57 | 284 | 3.0 | 7.0 | 0.00 | 0.07 | 0.07 | 55 | 1017.3 |
| 20260508153533 | 57 | 321 | 3.0 | 7.0 | 0.00 | 0.07 | 0.07 | 54 | 1017.3 |
| 20260508153044 | 57 | 264 | 2.0 | 8.0 | 0.00 | 0.07 | 0.07 | 54 | 1017.2 |
| 20260508152535 | 57 | 270 | 3.0 | 8.0 | 0.00 | 0.07 | 0.07 | 53 | 1017.2 |
| 20260508152031 | 57 | 306 | 3.0 | 8.0 | 0.00 | 0.07 | 0.07 | 52 | 1017.2 |
| 20260508151542 | 58 | 295 | 2.0 | 7.0 | 0.00 | 0.07 | 0.07 | 51 | 1017.2 |
| 20260508151030 | 57 | 3 | 4.0 | 7.0 | 0.00 | 0.07 | 0.07 | 51 | 1017.2 |
| 20260508150531 | 57 | 274 | 3.0 | 7.0 | 0.00 | 0.07 | 0.07 | 50 | 1017.2 |
| 20260508150039 | 57 | 304 | 3.0 | 8.0 | 0.00 | 0.07 | 0.07 | 49 | 1017.2 |
| 20260508145531 | 57 | 274 | 3.0 | 8.0 | 0.00 | 0.07 | 0.07 | 50 | 1017.2 |
| 20260508145031 | 57 | 279 | 4.0 | 8.0 | 0.00 | 0.07 | 0.07 | 51 | 1017.1 |
| 20260508144537 | 57 | 272 | 4.0 | 9.0 | 0.00 | 0.07 | 0.07 | 52 | 1017.1 |
| 20260508144032 | 56 | 312 | 4.0 | 9.0 | 0.00 | 0.07 | 0.07 | 53 | 1017.1 |
| 20260508143531 | 56 | 278 | 3.0 | 8.0 | 0.00 | 0.07 | 0.07 | 52 | 1017.1 |
| 20260508143048 | 56 | 279 | 4.0 | 9.0 | 0.00 | 0.07 | 0.07 | 52 | 1017.1 |
| 20260508142533 | 57 | 273 | 3.0 | 9.0 | 0.00 | 0.07 | 0.07 | 54 | 1017.0 |
| 20260508142030 | 56 | 276 | 3.0 | 9.0 | 0.00 | 0.07 | 0.07 | 53 | 1017.0 |
| 20260508141553 | 56 | 270 | 4.0 | 9.0 | 0.00 | 0.07 | 0.07 | 55 | 1017.0 |
| 20260508141030 | 56 | 266 | 4.0 | 8.0 | 0.00 | 0.07 | 0.07 | 54 | 1016.8 |
| 20260508140530 | 56 | 340 | 2.0 | 7.0 | 0.00 | 0.07 | 0.07 | 56 | 1016.9 |
| 20260508140044 | 56 | 280 | 1.0 | 10.0 | 0.00 | 0.07 | 0.07 | 58 | 1017.0 |
| 20260508135532 | 56 | 286 | 4.0 | 10.0 | 0.00 | 0.07 | 0.07 | 55 | 1016.9 |
| 20260508135032 | 56 | 302 | 4.0 | 10.0 | 0.00 | 0.07 | 0.07 | 55 | 1017.0 |
| 20260508134553 | 56 | 285 | 4.0 | 7.0 | 0.00 | 0.07 | 0.07 | 56 | 1017.0 |
| 20260508134032 | 56 | 281 | 3.0 | 7.0 | 0.00 | 0.07 | 0.07 | 56 | 1017.0 |
| 20260508133531 | 56 | 278 | 1.0 | 7.0 | 0.00 | 0.07 | 0.07 | 57 | 1017.0 |
| 20260508133036 | 56 | 295 | 3.0 | 9.0 | 0.00 | 0.07 | 0.07 | 57 | 1017.0 |
| 20260508132534 | 56 | 267 | 4.0 | 9.0 | 0.00 | 0.07 | 0.07 | 57 | 1016.9 |
| 20260508132033 | 56 | 285 | 2.0 | 9.0 | 0.00 | 0.07 | 0.07 | 58 | 1016.9 |
| 20260508131543 | 56 | 291 | 5.0 | 9.0 | 0.00 | 0.07 | 0.07 | 56 | 1016.8 |
| 20260508131031 | 56 | 248 | 3.0 | 8.0 | 0.00 | 0.07 | 0.07 | 58 | 1016.8 |
| 20260508130531 | 56 | 285 | 3.0 | 8.0 | 0.00 | 0.07 | 0.07 | 58 | 1016.7 |
| 20260508130043 | 56 | 298 | 3.0 | 7.0 | 0.00 | 0.07 | 0.07 | 58 | 1016.7 |
| 20260508125531 | 56 | 323 | 2.0 | 10.0 | 0.00 | 0.08 | 0.07 | 58 | 1016.7 |
| 20260508125031 | 56 | 298 | 3.0 | 10.0 | 0.00 | 0.08 | 0.07 | 58 | 1016.8 |
| 20260508124542 | 56 | 294 | 4.0 | 10.0 | 0.00 | 0.08 | 0.07 | 58 | 1016.7 |
| 20260508124031 | 56 | 281 | 2.0 | 6.0 | 0.00 | 0.08 | 0.07 | 60 | 1016.6 |
| 20260508123531 | 56 | 30 | 2.0 | 7.0 | 0.00 | 0.08 | 0.07 | 60 | 1016.6 |
| 20260508123044 | 55 | 245 | 2.0 | 8.0 | 0.00 | 0.08 | 0.07 | 60 | 1016.7 |
| 20260508122532 | 55 | 259 | 4.0 | 8.0 | 0.00 | 0.08 | 0.07 | 58 | 1016.6 |
| 20260508122031 | 56 | 290 | 2.0 | 8.0 | 0.00 | 0.08 | 0.07 | 59 | 1016.5 |
| 20260508121542 | 56 | 266 | 3.0 | 8.0 | 0.00 | 0.08 | 0.07 | 59 | 1016.6 |
| 20260508121030 | 56 | 269 | 2.0 | 8.0 | 0.00 | 0.08 | 0.07 | 60 | 1016.5 |
| 20260508120530 | 55 | 309 | 1.0 | 6.0 | 0.00 | 0.08 | 0.07 | 61 | 1016.4 |
| 20260508120045 | 55 | 281 | 3.0 | 7.0 | 0.00 | 0.08 | 0.07 | 61 | 1016.6 |
| 20260508115531 | 55 | 307 | 4.0 | 7.0 | 0.00 | 0.08 | 0.07 | 60 | 1016.5 |
| 20260508115030 | 55 | 250 | 4.0 | 7.0 | 0.00 | 0.08 | 0.07 | 59 | 1016.5 |
| 20260508114548 | 55 | 296 | 3.0 | 7.0 | 0.00 | 0.08 | 0.07 | 61 | 1016.5 |
| 20260508114030 | 55 | 320 | 3.0 | 8.0 | 0.00 | 0.08 | 0.07 | 60 | 1016.5 |
| 20260508113533 | 56 | 272 | 3.0 | 8.0 | 0.00 | 0.08 | 0.07 | 61 | 1016.4 |
| 20260508113040 | 55 | 286 | 3.0 | 8.0 | 0.00 | 0.08 | 0.07 | 61 | 1016.2 |
| 20260508112528 | 56 | 230 | 3.0 | 7.0 | 0.00 | 0.08 | 0.07 | 60 | 1016.3 |
| 20260508112031 | 55 | 286 | 3.0 | 9.0 | 0.00 | 0.08 | 0.07 | 61 | 1016.2 |
| 20260508111545 | 54 | 289 | 4.0 | 11.0 | 0.00 | 0.08 | 0.07 | 60 | 1016.2 |
| 20260508111030 | 54 | 300 | 5.0 | 11.0 | 0.00 | 0.08 | 0.07 | 61 | 1016.1 |
| 20260508110530 | 54 | 288 | 5.0 | 11.0 | 0.00 | 0.08 | 0.07 | 60 | 1016.2 |
| 20260508110035 | 54 | 279 | 3.0 | 9.0 | 0.00 | 0.08 | 0.07 | 61 | 1016.2 |
| 20260508105531 | 54 | 296 | 4.0 | 9.0 | 0.00 | 0.08 | 0.07 | 60 | 1016.3 |
| 20260508105031 | 54 | 285 | 4.0 | 9.0 | 0.00 | 0.08 | 0.07 | 59 | 1016.1 |
| 20260508104535 | 55 | 294 | 3.0 | 8.0 | 0.00 | 0.08 | 0.07 | 60 | 1016.1 |
| 20260508104030 | 54 | 259 | 4.0 | 8.0 | 0.00 | 0.08 | 0.07 | 60 | 1016.1 |
| 20260508103530 | 54 | 279 | 4.0 | 8.0 | 0.00 | 0.08 | 0.07 | 60 | 1016.0 |
| 20260508103040 | 55 | 266 | 4.0 | 8.0 | 0.00 | 0.08 | 0.07 | 60 | 1015.9 |
| 20260508102530 | 54 | 227 | 4.0 | 8.0 | 0.00 | 0.08 | 0.07 | 63 | 1016.0 |
| 20260508102030 | 54 | 287 | 3.0 | 8.0 | 0.00 | 0.08 | 0.07 | 63 | 1015.9 |
| 20260508101542 | 54 | 311 | 3.0 | 9.0 | 0.00 | 0.08 | 0.07 | 61 | 1015.9 |
| 20260508101031 | 54 | 226 | 4.0 | 9.0 | 0.00 | 0.08 | 0.07 | 62 | 1015.9 |
| 20260508100531 | 54 | 231 | 4.0 | 7.0 | 0.00 | 0.08 | 0.07 | 61 | 1015.9 |
| 20260508100041 | 54 | 299 | 2.0 | 7.0 | 0.00 | 0.08 | 0.07 | 64 | 1015.8 |
| 20260508095531 | 54 | 291 | 2.0 | 7.0 | 0.00 | 0.08 | 0.07 | 64 | 1015.7 |
| 20260508095032 | 54 | 266 | 2.0 | 7.0 | 0.00 | 0.08 | 0.07 | 64 | 1015.7 |
| 20260508094553 | 54 | 226 | 3.0 | 7.0 | 0.00 | 0.08 | 0.07 | 65 | 1015.7 |
| 20260508094031 | 54 | 272 | 3.0 | 7.0 | 0.00 | 0.08 | 0.07 | 65 | 1015.6 |
| 20260508093531 | 54 | 252 | 2.0 | 8.0 | 0.00 | 0.08 | 0.07 | 66 | 1015.6 |
| 20260508093036 | 54 | 283 | 3.0 | 8.0 | 0.00 | 0.08 | 0.07 | 65 | 1015.5 |
| 20260508092531 | 54 | 305 | 3.0 | 7.0 | 0.00 | 0.08 | 0.07 | 67 | 1015.6 |
| 20260508092030 | 53 | 296 | 2.0 | 7.0 | 0.00 | 0.08 | 0.07 | 69 | 1015.6 |
| 20260508091545 | 53 | 284 | 2.0 | 6.0 | 0.00 | 0.08 | 0.07 | 69 | 1015.6 |
| 20260508091032 | 53 | 291 | 3.0 | 7.0 | 0.00 | 0.08 | 0.07 | 69 | 1015.6 |
| 20260508090531 | 53 | 302 | 3.0 | 7.0 | 0.00 | 0.08 | 0.07 | 70 | 1015.7 |
| 20260508090049 | 52 | 245 | 2.0 | 7.0 | 0.00 | 0.08 | 0.07 | 70 | 1015.5 |
| 20260508085527 | 52 | 260 | 3.0 | 7.0 | 0.00 | 0.09 | 0.07 | 71 | 1015.3 |
| 20260508085031 | 52 | 267 | 3.0 | 7.0 | 0.00 | 0.09 | 0.07 | 72 | 1015.2 |
| 20260508084540 | 52 | 290 | 3.0 | 7.0 | 0.00 | 0.09 | 0.07 | 73 | 1015.2 |
| 20260508084033 | 52 | 293 | 2.0 | 7.0 | 0.00 | 0.09 | 0.07 | 74 | 1015.2 |
| 20260508083533 | 52 | 285 | 2.0 | 8.0 | 0.00 | 0.09 | 0.07 | 74 | 1015.2 |
| 20260508083038 | 52 | 267 | 3.0 | 8.0 | 0.00 | 0.09 | 0.07 | 74 | 1015.1 |
| 20260508082531 | 51 | 289 | 3.0 | 7.0 | 0.00 | 0.09 | 0.07 | 76 | 1015.0 |
| 20260508082031 | 51 | 252 | 2.0 | 6.0 | 0.00 | 0.09 | 0.07 | 77 | 1014.9 |
| 20260508081600 | 51 | 288 | 2.0 | 5.0 | 0.00 | 0.09 | 0.07 | 78 | 1015.0 |
| 20260508081030 | 51 | 228 | 2.0 | 8.0 | 0.00 | 0.09 | 0.07 | 78 | 1015.0 |
| 20260508080534 | 50 | 319 | 3.0 | 8.0 | 0.00 | 0.09 | 0.07 | 78 | 1015.0 |
| 20260508080036 | 50 | 288 | 4.0 | 8.0 | 0.00 | 0.09 | 0.07 | 78 | 1015.0 |
| 20260508075533 | 50 | 295 | 3.0 | 7.0 | 0.00 | 0.09 | 0.07 | 79 | 1014.8 |
| 20260508075031 | 50 | 283 | 1.0 | 4.0 | 0.00 | 0.09 | 0.07 | 81 | 1014.7 |
| 20260508074536 | 50 | 319 | 0.0 | 3.0 | 0.00 | 0.09 | 0.07 | 82 | 1014.7 |
| 20260508074034 | 50 | 278 | 2.0 | 3.0 | 0.00 | 0.09 | 0.07 | 82 | 1014.8 |
| 20260508073531 | 50 | 211 | 0.0 | 3.0 | 0.00 | 0.09 | 0.07 | 83 | 1014.7 |
| 20260508073040 | 49 | 276 | 1.0 | 6.0 | 0.00 | 0.09 | 0.07 | 82 | 1014.6 |
| 20260508072531 | 49 | 298 | 2.0 | 6.0 | 0.00 | 0.09 | 0.07 | 83 | 1014.5 |
| 20260508072032 | 49 | 247 | 1.0 | 3.0 | 0.00 | 0.09 | 0.07 | 84 | 1014.5 |
| 20260508071544 | 49 | 287 | 1.0 | 3.0 | 0.00 | 0.09 | 0.07 | 84 | 1014.4 |
| 20260508071031 | 49 | 262 | 1.0 | 3.0 | 0.00 | 0.09 | 0.07 | 85 | 1014.4 |
| 20260508070533 | 49 | 0 | 0.0 | 2.0 | 0.00 | 0.09 | 0.07 | 85 | 1014.3 |
| 20260508070039 | 48 | 263 | 0.0 | 2.0 | 0.00 | 0.09 | 0.07 | 85 | 1014.1 |
| 20260508065530 | 48 | 338 | 0.0 | 3.0 | 0.00 | 0.09 | 0.07 | 86 | 1014.1 |
| 20260508065030 | 48 | 0 | 0.0 | 3.0 | 0.00 | 0.09 | 0.07 | 86 | 1014.0 |
| 20260508064543 | 48 | 0 | 0.0 | 1.0 | 0.00 | 0.09 | 0.07 | 86 | 1013.9 |
| 20260508064030 | 48 | 0 | 0.0 | 1.0 | 0.00 | 0.09 | 0.07 | 86 | 1013.8 |
| 20260508063529 | 48 | 245 | 0.0 | 1.0 | 0.00 | 0.09 | 0.07 | 86 | 1013.9 |
| 20260508063052 | 48 | 245 | 0.0 | 1.0 | 0.00 | 0.09 | 0.07 | 86 | 1013.8 |
| 20260508062532 | 48 | 0 | 0.0 | 1.0 | 0.00 | 0.09 | 0.07 | 86 | 1013.7 |
| 20260508062027 | 48 | 233 | 0.0 | 3.0 | 0.00 | 0.09 | 0.07 | 86 | 1013.6 |
| 20260508061543 | 48 | 0 | 0.0 | 3.0 | 0.00 | 0.09 | 0.07 | 86 | 1013.6 |
| 20260508061031 | 48 | 0 | 0.0 | 1.0 | 0.00 | 0.09 | 0.07 | 87 | 1013.5 |
| 20260508060530 | 48 | 0 | 0.0 | 1.0 | 0.00 | 0.09 | 0.07 | 87 | 1013.5 |
| 20260508060039 | 47 | 236 | 0.0 | 1.0 | 0.00 | 0.09 | 0.07 | 87 | 1013.5 |
| 20260508055531 | 47 | 0 | 0.0 | 1.0 | 0.00 | 0.09 | 0.07 | 87 | 1013.4 |
| 20260508055035 | 47 | 270 | 0.0 | 1.0 | 0.00 | 0.09 | 0.07 | 87 | 1013.4 |
| 20260508054538 | 47 | 225 | 0.0 | 1.0 | 0.00 | 0.09 | 0.07 | 87 | 1013.4 |
| 20260508054032 | 47 | 0 | 0.0 | 1.0 | 0.00 | 0.09 | 0.07 | 87 | 1013.3 |
| 20260508053530 | 47 | 0 | 0.0 | 0.0 | 0.00 | 0.09 | 0.07 | 87 | 1013.2 |
| 20260508053042 | 47 | 0 | 0.0 | 1.0 | 0.00 | 0.09 | 0.07 | 87 | 1013.1 |
| 20260508052532 | 47 | 0 | 0.0 | 1.0 | 0.00 | 0.09 | 0.07 | 87 | 1013.1 |
| 20260508052031 | 47 | 160 | 0.0 | 2.0 | 0.00 | 0.09 | 0.07 | 87 | 1013.0 |
| 20260508051535 | 47 | 0 | 0.0 | 2.0 | 0.00 | 0.09 | 0.07 | 87 | 1013.0 |
| 20260508051031 | 47 | 0 | 0.0 | 1.0 | 0.00 | 0.09 | 0.07 | 87 | 1013.0 |
| 20260508050528 | 47 | 219 | 0.0 | 2.0 | 0.00 | 0.09 | 0.07 | 87 | 1013.0 |
| 20260508050047 | 47 | 0 | 0.0 | 2.0 | 0.00 | 0.09 | 0.07 | 87 | 1013.0 |
| 20260508045527 | 48 | 0 | 0.0 | 0.0 | 0.00 | 0.09 | 0.07 | 87 | 1013.0 |
| 20260508045027 | 48 | 0 | 0.0 | 0.0 | 0.00 | 0.09 | 0.07 | 87 | 1012.9 |
| 20260508044542 | 48 | 0 | 0.0 | 1.0 | 0.00 | 0.09 | 0.07 | 87 | 1012.8 |
| 20260508044031 | 48 | 0 | 0.0 | 2.0 | 0.00 | 0.09 | 0.07 | 87 | 1012.9 |
| 20260508043532 | 48 | 0 | 0.0 | 2.0 | 0.00 | 0.09 | 0.07 | 87 | 1012.7 |
| 20260508043037 | 47 | 173 | 0.0 | 2.0 | 0.00 | 0.09 | 0.07 | 87 | 1012.7 |
| 20260508042529 | 47 | 0 | 0.0 | 2.0 | 0.00 | 0.09 | 0.07 | 87 | 1012.7 |
| 20260508042027 | 47 | 0 | 0.0 | 1.0 | 0.00 | 0.09 | 0.07 | 87 | 1012.7 |
| 20260508041536 | 48 | 250 | 0.0 | 1.0 | 0.00 | 0.09 | 0.07 | 87 | 1012.6 |
| 20260508041028 | 47 | 245 | 0.0 | 1.0 | 0.00 | 0.09 | 0.07 | 87 | 1012.6 |
| 20260508040529 | 48 | 0 | 0.0 | 1.0 | 0.00 | 0.09 | 0.07 | 87 | 1012.4 |
| 20260508040048 | 48 | 0 | 0.0 | 1.0 | 0.00 | 0.09 | 0.07 | 86 | 1012.5 |
| 20260508035527 | 48 | 0 | 0.0 | 1.0 | 0.00 | 0.09 | 0.07 | 86 | 1012.5 |
| 20260508035027 | 48 | 0 | 0.0 | 0.0 | 0.00 | 0.09 | 0.07 | 86 | 1012.5 |
| 20260508034542 | 48 | 0 | 0.0 | 1.0 | 0.00 | 0.09 | 0.07 | 86 | 1012.4 |
| 20260508034027 | 48 | 0 | 0.0 | 1.0 | 0.00 | 0.09 | 0.07 | 86 | 1012.3 |
| 20260508033527 | 48 | 0 | 0.0 | 1.0 | 0.00 | 0.09 | 0.07 | 86 | 1012.3 |
| 20260508033036 | 48 | 251 | 0.0 | 1.0 | 0.00 | 0.09 | 0.07 | 86 | 1012.3 |
| 20260508032531 | 48 | 0 | 0.0 | 0.0 | 0.00 | 0.09 | 0.07 | 86 | 1012.3 |
| 20260508032030 | 48 | 0 | 0.0 | 1.0 | 0.00 | 0.09 | 0.07 | 86 | 1012.3 |
| 20260508031537 | 48 | 0 | 0.0 | 1.0 | 0.00 | 0.09 | 0.07 | 86 | 1012.4 |
| 20260508031031 | 48 | 0 | 0.0 | 3.0 | 0.00 | 0.09 | 0.07 | 86 | 1012.3 |
| 20260508030531 | 48 | 0 | 0.0 | 3.0 | 0.00 | 0.09 | 0.07 | 86 | 1012.3 |
| 20260508030036 | 48 | 0 | 0.0 | 1.0 | 0.00 | 0.09 | 0.07 | 86 | 1012.3 |
| 20260508025531 | 48 | 0 | 0.0 | 2.0 | 0.00 | 0.09 | 0.07 | 86 | 1012.3 |
| 20260508025030 | 48 | 0 | 0.0 | 2.0 | 0.00 | 0.09 | 0.07 | 86 | 1012.2 |
| 20260508024546 | 48 | 0 | 0.0 | 2.0 | 0.00 | 0.09 | 0.07 | 86 | 1012.1 |
| 20260508024028 | 48 | 293 | 0.0 | 2.0 | 0.00 | 0.09 | 0.07 | 86 | 1012.3 |
| 20260508023528 | 48 | 245 | 0.0 | 2.0 | 0.00 | 0.09 | 0.07 | 86 | 1012.2 |
| 20260508023042 | 48 | 288 | 0.0 | 2.0 | 0.00 | 0.09 | 0.07 | 86 | 1012.3 |
| 20260508022527 | 48 | 0 | 0.0 | 1.0 | 0.00 | 0.09 | 0.07 | 86 | 1012.3 |
| 20260508022058 | 48 | 0 | 0.0 | 1.0 | 0.00 | 0.09 | 0.07 | 86 | 1012.2 |
| 20260508021539 | 48 | 0 | 0.0 | 1.0 | 0.00 | 0.09 | 0.07 | 86 | 1012.2 |
| 20260508021027 | 48 | 0 | 0.0 | 1.0 | 0.00 | 0.09 | 0.07 | 86 | 1012.2 |
| 20260508020529 | 48 | 0 | 0.0 | 1.0 | 0.00 | 0.09 | 0.07 | 86 | 1012.2 |
| 20260508020036 | 48 | 0 | 0.0 | 1.0 | 0.00 | 0.09 | 0.07 | 85 | 1012.3 |
| 20260508015531 | 48 | 0 | 0.0 | 0.0 | 0.00 | 0.09 | 0.07 | 85 | 1012.2 |
| 20260508015031 | 48 | 0 | 0.0 | 0.0 | 0.00 | 0.09 | 0.07 | 85 | 1012.2 |
| 20260508014541 | 48 | 0 | 0.0 | 1.0 | 0.00 | 0.09 | 0.07 | 85 | 1012.2 |
| 20260508014033 | 48 | 0 | 0.0 | 1.0 | 0.00 | 0.09 | 0.07 | 85 | 1012.0 |
| 20260508013531 | 48 | 0 | 0.0 | 2.0 | 0.00 | 0.09 | 0.07 | 85 | 1011.9 |
| 20260508013035 | 48 | 0 | 0.0 | 2.0 | 0.00 | 0.09 | 0.07 | 85 | 1011.9 |
| 20260508012530 | 48 | 0 | 0.0 | 1.0 | 0.00 | 0.09 | 0.07 | 85 | 1011.9 |
| 20260508012032 | 48 | 0 | 0.0 | 1.0 | 0.00 | 0.09 | 0.07 | 85 | 1011.9 |
| 20260508011538 | 48 | 328 | 0.0 | 1.0 | 0.00 | 0.09 | 0.07 | 85 | 1011.8 |
| 20260508011027 | 48 | 2 | 0.0 | 1.0 | 0.00 | 0.09 | 0.07 | 85 | 1011.9 |
| 20260508010527 | 48 | 304 | 0.0 | 2.0 | 0.00 | 0.09 | 0.07 | 85 | 1011.9 |
| 20260508010039 | 48 | 334 | 0.0 | 2.0 | 0.00 | 0.09 | 0.07 | 84 | 1011.8 |
| 20260508005527 | 48 | 0 | 0.0 | 2.0 | 0.01 | 0.09 | 0.07 | 84 | 1011.8 |
| 20260508005027 | 48 | 160 | 0.0 | 2.0 | 0.01 | 0.09 | 0.07 | 84 | 1011.8 |
| 20260508004536 | 48 | 354 | 0.0 | 2.0 | 0.02 | 0.09 | 0.07 | 84 | 1011.7 |
| 20260508004030 | 48 | 0 | 0.0 | 2.0 | 0.02 | 0.09 | 0.07 | 84 | 1011.8 |
| 20260508003533 | 48 | 0 | 0.0 | 3.0 | 0.03 | 0.09 | 0.07 | 84 | 1011.8 |
| 20260508003041 | 48 | 140 | 0.0 | 3.0 | 0.04 | 0.09 | 0.07 | 83 | 1011.7 |
| 20260508002527 | 47 | 91 | 0.0 | 3.0 | 0.07 | 0.09 | 0.07 | 83 | 1011.9 |
| 20260508002027 | 48 | 0 | 0.0 | 2.0 | 0.07 | 0.09 | 0.07 | 83 | 1011.9 |
| 20260508001542 | 48 | 0 | 0.0 | 1.0 | 0.07 | 0.09 | 0.07 | 83 | 1011.9 |
| 20260508001031 | 48 | 49 | 0.0 | 1.0 | 0.07 | 0.09 | 0.07 | 82 | 1012.0 |
| 20260508000527 | 48 | 0 | 0.0 | 1.0 | 0.07 | 0.08 | 0.07 | 82 | 1012.0 |
| 20260508000041 | 48 | 0 | 0.0 | 1.0 | 0.06 | 0.07 | 0.06 | 82 | 1012.1 |
| 20260507235527 | 48 | 0 | 0.0 | 1.0 | 0.06 | 0.07 | 0.06 | 81 | 1012.0 |
| 20260507235027 | 48 | 0 | 0.0 | 2.0 | 0.06 | 0.07 | 0.06 | 81 | 1011.9 |
| 20260507234537 | 49 | 269 | 0.0 | 2.0 | 0.05 | 0.07 | 0.05 | 81 | 1012.0 |
| 20260507234027 | 49 | 278 | 1.0 | 4.0 | 0.05 | 0.07 | 0.05 | 80 | 1011.9 |
| 20260507233531 | 49 | 250 | 0.0 | 4.0 | 0.03 | 0.05 | 0.03 | 79 | 1011.9 |
| 20260507233043 | 50 | 286 | 1.0 | 4.0 | 0.02 | 0.03 | 0.02 | 78 | 1011.8 |
| 20260507232529 | 50 | 293 | 1.0 | 5.0 | 0.00 | 0.01 | 0.00 | 77 | 1011.7 |
| 20260507232027 | 50 | 338 | 1.0 | 5.0 | 0.00 | 0.01 | 0.00 | 76 | 1011.7 |
| 20260507231538 | 50 | 0 | 0.0 | 2.0 | 0.00 | 0.01 | 0.00 | 76 | 1011.5 |
| 20260507231031 | 50 | 256 | 0.0 | 3.0 | 0.00 | 0.01 | 0.00 | 76 | 1011.5 |
| 20260507230531 | 50 | 266 | 0.0 | 4.0 | 0.00 | 0.01 | 0.00 | 75 | 1011.5 |
| 20260507230049 | 50 | 87 | 0.0 | 4.0 | 0.00 | 0.01 | 0.00 | 75 | 1011.7 |
| 20260507225531 | 50 | 221 | 0.0 | 4.0 | 0.00 | 0.01 | 0.01 | 75 | 1011.6 |
| 20260507225031 | 50 | 303 | 0.0 | 4.0 | 0.00 | 0.01 | 0.01 | 75 | 1011.5 |
| 20260507224542 | 50 | 62 | 1.0 | 4.0 | 0.00 | 0.01 | 0.01 | 75 | 1011.6 |
| 20260507224032 | 50 | 250 | 0.0 | 4.0 | 0.00 | 0.01 | 0.01 | 75 | 1011.5 |
| 20260507223531 | 50 | 4 | 0.0 | 4.0 | 0.00 | 0.01 | 0.01 | 75 | 1011.6 |
| 20260507223041 | 50 | 94 | 1.0 | 4.0 | 0.00 | 0.01 | 0.01 | 75 | 1011.6 |
| 20260507222536 | 50 | 66 | 0.0 | 4.0 | 0.00 | 0.01 | 0.01 | 76 | 1011.6 |
| 20260507222031 | 50 | 250 | 1.0 | 4.0 | 0.00 | 0.01 | 0.01 | 76 | 1011.6 |
| 20260507221540 | 50 | 86 | 1.0 | 4.0 | 0.00 | 0.01 | 0.01 | 76 | 1011.4 |
| 20260507221031 | 50 | 0 | 1.0 | 4.0 | 0.00 | 0.01 | 0.01 | 76 | 1011.3 |
| 20260507220533 | 50 | 49 | 1.0 | 4.0 | 0.00 | 0.01 | 0.01 | 76 | 1011.3 |
| 20260507220037 | 50 | 148 | 1.0 | 4.0 | 0.00 | 0.01 | 0.01 | 76 | 1011.4 |
| 20260507215533 | 50 | 51 | 0.0 | 4.0 | 0.00 | 0.01 | 0.01 | 76 | 1011.3 |
| 20260507215031 | 50 | 272 | 0.0 | 4.0 | 0.00 | 0.01 | 0.01 | 76 | 1011.4 |
| 20260507214556 | 50 | 0 | 0.0 | 3.0 | 0.00 | 0.01 | 0.01 | 76 | 1011.5 |
| 20260507214031 | 50 | 0 | 0.0 | 3.0 | 0.00 | 0.01 | 0.01 | 75 | 1011.5 |
| 20260507213533 | 50 | 320 | 0.0 | 3.0 | 0.00 | 0.01 | 0.01 | 75 | 1011.5 |
| 20260507213044 | 50 | 0 | 0.0 | 3.0 | 0.00 | 0.01 | 0.01 | 75 | 1011.5 |
| 20260507212531 | 50 | 347 | 0.0 | 2.0 | 0.00 | 0.01 | 0.01 | 75 | 1011.6 |
| 20260507212032 | 50 | 72 | 0.0 | 2.0 | 0.00 | 0.01 | 0.01 | 74 | 1011.5 |
| 20260507211539 | 50 | 0 | 0.0 | 1.0 | 0.00 | 0.01 | 0.01 | 74 | 1011.6 |
| 20260507211030 | 51 | 0 | 0.0 | 1.0 | 0.00 | 0.01 | 0.01 | 74 | 1011.6 |
| 20260507210531 | 51 | 0 | 0.0 | 1.0 | 0.00 | 0.01 | 0.01 | 73 | 1011.6 |
| 20260507210036 | 51 | 72 | 0.0 | 1.0 | 0.00 | 0.01 | 0.01 | 73 | 1011.6 |
| 20260507205532 | 51 | 0 | 0.0 | 2.0 | 0.00 | 0.01 | 0.01 | 73 | 1011.7 |
| 20260507205032 | 51 | 73 | 0.0 | 3.0 | 0.00 | 0.01 | 0.01 | 73 | 1011.5 |
| 20260507204543 | 51 | 247 | 0.0 | 3.0 | 0.00 | 0.01 | 0.01 | 72 | 1011.6 |
| 20260507204033 | 51 | 211 | 1.0 | 3.0 | 0.00 | 0.01 | 0.01 | 72 | 1011.5 |
| 20260507203531 | 51 | 0 | 1.0 | 4.0 | 0.00 | 0.01 | 0.01 | 72 | 1011.5 |
| 20260507203101 | 52 | 0 | 0.0 | 4.0 | 0.00 | 0.01 | 0.01 | 71 | 1011.4 |
| 20260507202531 | 52 | 85 | 0.0 | 4.0 | 0.00 | 0.01 | 0.01 | 71 | 1011.4 |
| 20260507202031 | 52 | 9 | 0.0 | 4.0 | 0.00 | 0.01 | 0.01 | 70 | 1011.4 |
| 20260507201554 | 52 | 60 | 0.0 | 4.0 | 0.00 | 0.01 | 0.01 | 70 | 1011.3 |
| 20260507201031 | 52 | 51 | 0.0 | 6.0 | 0.00 | 0.01 | 0.01 | 70 | 1011.4 |
| 20260507200532 | 52 | 224 | 0.0 | 6.0 | 0.00 | 0.01 | 0.01 | 70 | 1011.2 |
| 20260507200103 | 52 | 123 | 0.0 | 6.0 | 0.00 | 0.01 | 0.01 | 70 | 1011.3 |
| 20260507195532 | 52 | 89 | 0.0 | 3.0 | 0.00 | 0.01 | 0.01 | 69 | 1011.3 |
| 20260507195036 | 52 | 75 | 0.0 | 3.0 | 0.00 | 0.01 | 0.01 | 69 | 1011.3 |
| 20260507194537 | 53 | 177 | 1.0 | 3.0 | 0.00 | 0.01 | 0.01 | 69 | 1011.3 |
| 20260507194032 | 53 | 0 | 0.0 | 4.0 | 0.00 | 0.01 | 0.01 | 68 | 1011.0 |
| 20260507193533 | 53 | 260 | 0.0 | 4.0 | 0.00 | 0.01 | 0.01 | 68 | 1011.1 |
| 20260507193044 | 53 | 142 | 0.0 | 3.0 | 0.00 | 0.01 | 0.01 | 68 | 1011.0 |
| 20260507192531 | 53 | 87 | 0.0 | 3.0 | 0.00 | 0.01 | 0.01 | 68 | 1010.9 |
| 20260507192039 | 53 | 0 | 0.0 | 2.0 | 0.00 | 0.01 | 0.01 | 68 | 1010.9 |
| 20260507191543 | 53 | 277 | 0.0 | 3.0 | 0.00 | 0.01 | 0.01 | 67 | 1010.9 |
| 20260507191031 | 54 | 94 | 0.0 | 3.0 | 0.00 | 0.01 | 0.01 | 67 | 1010.8 |
| 20260507190536 | 54 | 95 | 0.0 | 3.0 | 0.00 | 0.01 | 0.01 | 65 | 1010.8 |
| 20260507190042 | 54 | 0 | 0.0 | 5.0 | 0.00 | 0.01 | 0.01 | 64 | 1010.7 |
| 20260507185534 | 55 | 0 | 1.0 | 5.0 | 0.00 | 0.01 | 0.01 | 63 | 1010.8 |
| 20260507185031 | 56 | 317 | 0.0 | 4.0 | 0.00 | 0.01 | 0.01 | 61 | 1010.7 |